createdAt,value
2023-05-21T00:00:00.113Z,0.00
2023-05-21T00:01:00.064Z,0.00
2023-05-21T00:02:00.149Z,0.00
2023-05-21T00:03:00.096Z,0.00
2023-05-21T00:04:00.185Z,0.00
2023-05-21T00:05:00.019Z,0.00
2023-05-21T00:06:00.041Z,0.00
2023-05-21T00:06:59.943Z,0.00
2023-05-21T00:07:59.921Z,0.00
2023-05-21T00:08:59.900Z,0.00
2023-05-21T00:09:59.885Z,0.00
2023-05-21T00:10:59.862Z,0.00
2023-05-21T00:11:59.845Z,0.00
2023-05-21T00:12:59.809Z,0.00
2023-05-21T00:13:59.843Z,0.00
2023-05-21T00:14:59.801Z,0.00
2023-05-21T00:15:59.818Z,0.00
2023-05-21T00:16:59.741Z,0.00
2023-05-21T00:17:59.781Z,0.00
2023-05-21T00:18:59.723Z,0.00
2023-05-21T00:19:59.678Z,0.00
2023-05-21T00:20:59.638Z,0.00
2023-05-21T00:21:59.620Z,0.00
2023-05-21T00:22:59.606Z,0.00
2023-05-21T00:23:59.588Z,0.00
2023-05-21T00:24:59.558Z,0.00
2023-05-21T00:25:59.533Z,0.00
2023-05-21T00:26:59.517Z,0.00
2023-05-21T00:27:59.493Z,0.00
2023-05-21T00:28:59.461Z,0.00
2023-05-21T00:29:59.454Z,0.00
2023-05-21T00:30:59.420Z,0.00
2023-05-21T00:31:59.487Z,0.00
2023-05-21T00:32:59.414Z,0.00
2023-05-21T00:33:59.354Z,0.00
2023-05-21T00:34:59.333Z,0.00
2023-05-21T00:35:59.326Z,0.00
2023-05-21T00:36:59.291Z,0.00
2023-05-21T00:37:59.271Z,0.00
2023-05-21T00:38:59.238Z,0.00
2023-05-21T00:39:59.230Z,0.00
2023-05-21T00:40:59.217Z,0.00
2023-05-21T00:41:59.176Z,0.00
2023-05-21T00:42:59.165Z,0.00
2023-05-21T00:43:59.137Z,0.00
2023-05-21T00:44:59.117Z,0.00
2023-05-21T00:45:59.118Z,0.00
2023-05-21T00:46:59.068Z,0.00
2023-05-21T00:47:59.092Z,0.00
2023-05-21T00:48:59.032Z,0.00
2023-05-21T00:49:59.012Z,0.00
2023-05-21T00:50:58.975Z,0.00
2023-05-21T00:51:58.974Z,0.00
2023-05-21T00:52:58.945Z,0.00
2023-05-21T00:53:58.919Z,0.00
2023-05-21T00:54:58.894Z,0.00
2023-05-21T00:55:58.879Z,0.00
2023-05-21T00:56:58.859Z,0.00
2023-05-21T00:57:58.830Z,0.00
2023-05-21T00:58:58.805Z,0.00
2023-05-21T00:59:58.798Z,0.00
2023-05-21T01:00:58.846Z,0.00
2023-05-21T01:01:58.797Z,0.00
2023-05-21T01:02:58.768Z,0.00
2023-05-21T01:03:58.699Z,0.00
2023-05-21T01:04:58.687Z,0.00
2023-05-21T01:05:58.658Z,0.00
2023-05-21T01:06:58.639Z,0.00
2023-05-21T01:07:58.624Z,0.00
2023-05-21T01:08:58.602Z,0.00
2023-05-21T01:09:58.576Z,0.00
2023-05-21T01:10:58.542Z,0.00
2023-05-21T01:11:58.605Z,0.00
2023-05-21T01:12:58.525Z,0.00
2023-05-21T01:13:58.489Z,0.00
2023-05-21T01:14:58.472Z,0.00
2023-05-21T01:15:58.445Z,0.00
2023-05-21T01:16:58.447Z,0.00
2023-05-21T01:17:58.431Z,0.00
2023-05-21T01:18:58.456Z,0.00
2023-05-21T01:19:58.358Z,0.00
2023-05-21T01:20:58.347Z,0.00
2023-05-21T01:21:58.311Z,0.00
2023-05-21T01:22:58.298Z,0.00
2023-05-21T01:23:58.276Z,0.00
2023-05-21T01:24:58.246Z,0.00
2023-05-21T01:25:58.232Z,0.00
2023-05-21T01:26:58.206Z,0.00
2023-05-21T01:27:58.181Z,0.00
2023-05-21T01:28:58.179Z,0.00
2023-05-21T01:29:58.150Z,0.00
2023-05-21T01:30:58.136Z,0.00
2023-05-21T01:31:58.097Z,0.00
2023-05-21T01:32:58.143Z,0.00
2023-05-21T01:33:58.075Z,0.00
2023-05-21T01:34:58.028Z,0.00
2023-05-21T01:35:58.011Z,0.00
2023-05-21T01:36:58.004Z,0.00
2023-05-21T01:37:58.007Z,0.00
2023-05-21T01:38:57.940Z,0.00
2023-05-21T01:39:57.980Z,0.00
2023-05-21T01:40:57.898Z,0.00
2023-05-21T01:41:57.883Z,0.00
2023-05-21T01:42:57.849Z,0.00
2023-05-21T01:43:57.835Z,0.00
2023-05-21T01:44:57.811Z,0.00
2023-05-21T01:45:57.847Z,0.00
2023-05-21T01:46:57.770Z,0.00
2023-05-21T01:47:57.767Z,0.00
2023-05-21T01:48:57.775Z,0.00
2023-05-21T01:49:57.710Z,0.00
2023-05-21T01:50:57.695Z,0.00
2023-05-21T01:51:57.664Z,0.00
2023-05-21T01:52:57.640Z,0.00
2023-05-21T01:53:57.628Z,0.00
2023-05-21T01:54:57.604Z,0.00
2023-05-21T01:55:57.591Z,0.00
2023-05-21T01:56:57.567Z,0.00
2023-05-21T01:57:57.814Z,0.00
2023-05-21T01:58:57.525Z,0.00
2023-05-21T01:59:57.489Z,0.00
2023-05-21T02:00:57.487Z,0.00
2023-05-21T02:01:57.470Z,0.00
2023-05-21T02:02:57.485Z,0.00
2023-05-21T02:03:57.513Z,0.00
2023-05-21T02:04:57.391Z,0.00
2023-05-21T02:05:57.395Z,0.00
2023-05-21T02:06:57.353Z,0.00
2023-05-21T02:07:57.327Z,0.00
2023-05-21T02:08:57.303Z,0.00
2023-05-21T02:09:57.277Z,0.00
2023-05-21T02:10:57.263Z,0.00
2023-05-21T02:11:57.263Z,0.00
2023-05-21T02:12:57.221Z,0.00
2023-05-21T02:13:57.189Z,0.00
2023-05-21T02:14:57.166Z,0.00
2023-05-21T02:15:57.184Z,0.00
2023-05-21T02:16:57.128Z,0.00
2023-05-21T02:17:57.152Z,0.00
2023-05-21T02:18:57.105Z,0.00
2023-05-21T02:19:57.062Z,0.00
2023-05-21T02:20:57.048Z,0.00
2023-05-21T02:21:57.017Z,0.00
2023-05-21T02:22:57.003Z,0.00
2023-05-21T02:23:56.972Z,0.00
2023-05-21T02:24:56.960Z,0.00
2023-05-21T02:25:56.932Z,0.00
2023-05-21T02:26:56.919Z,0.00
2023-05-21T02:27:56.957Z,0.00
2023-05-21T02:28:56.872Z,0.00
2023-05-21T02:29:56.864Z,0.00
2023-05-21T02:30:56.826Z,0.00
2023-05-21T02:31:56.811Z,0.00
2023-05-21T02:32:56.792Z,0.00
2023-05-21T02:33:56.801Z,0.00
2023-05-21T02:34:56.744Z,0.00
2023-05-21T02:35:56.715Z,0.00
2023-05-21T02:36:56.700Z,0.00
2023-05-21T02:37:56.680Z,0.00
2023-05-21T02:38:56.663Z,0.00
2023-05-21T02:39:56.628Z,0.00
2023-05-21T02:40:56.613Z,0.00
2023-05-21T02:41:56.583Z,0.00
2023-05-21T02:42:56.570Z,0.00
2023-05-21T02:43:56.583Z,0.00
2023-05-21T02:44:56.529Z,0.00
2023-05-21T02:45:56.528Z,0.00
2023-05-21T02:46:56.480Z,0.00
2023-05-21T02:47:56.495Z,0.00
2023-05-21T02:48:56.448Z,0.00
2023-05-21T02:49:56.429Z,0.00
2023-05-21T02:50:56.395Z,0.00
2023-05-21T02:51:56.377Z,0.00
2023-05-21T02:52:56.363Z,0.00
2023-05-21T02:53:56.325Z,0.00
2023-05-21T02:54:56.308Z,0.00
2023-05-21T02:55:56.296Z,0.00
2023-05-21T02:56:56.261Z,0.00
2023-05-21T02:57:56.237Z,0.00
2023-05-21T02:58:56.223Z,0.00
2023-05-21T02:59:56.213Z,0.00
2023-05-21T03:00:56.257Z,0.00
2023-05-21T03:01:56.154Z,0.00
2023-05-21T03:02:56.196Z,0.00
2023-05-21T03:03:56.138Z,4.00
2023-05-21T03:04:56.094Z,4.00
2023-05-21T03:05:56.094Z,4.00
2023-05-21T03:06:56.051Z,0.00
2023-05-21T03:07:56.037Z,4.00
2023-05-21T03:08:56.012Z,4.00
2023-05-21T03:09:55.980Z,8.00
2023-05-21T03:10:55.968Z,4.00
2023-05-21T03:11:55.937Z,8.00
2023-05-21T03:12:55.927Z,8.00
2023-05-21T03:13:55.896Z,12.00
2023-05-21T03:14:55.877Z,12.00
2023-05-21T03:15:55.881Z,12.00
2023-05-21T03:16:55.888Z,16.00
2023-05-21T03:17:55.927Z,16.00
2023-05-21T03:18:55.834Z,20.00
2023-05-21T03:19:55.773Z,24.00
2023-05-21T03:20:55.749Z,24.00
2023-05-21T03:21:55.724Z,28.00
2023-05-21T03:22:55.705Z,36.00
2023-05-21T03:23:55.691Z,36.00
2023-05-21T03:24:55.667Z,44.00
2023-05-21T03:25:55.639Z,48.00
2023-05-21T03:26:55.645Z,52.00
2023-05-21T03:27:55.611Z,60.00
2023-05-21T03:28:55.586Z,64.00
2023-05-21T03:29:55.555Z,68.00
2023-05-21T03:30:55.540Z,72.00
2023-05-21T03:31:56.386Z,80.00
2023-05-21T03:32:55.568Z,88.00
2023-05-21T03:33:55.476Z,92.00
2023-05-21T03:34:55.452Z,104.00
2023-05-21T03:35:55.463Z,108.00
2023-05-21T03:36:55.407Z,120.00
2023-05-21T03:37:55.380Z,128.00
2023-05-21T03:38:55.362Z,144.00
2023-05-21T03:39:55.336Z,156.00
2023-05-21T03:40:55.328Z,168.00
2023-05-21T03:41:55.344Z,188.00
2023-05-21T03:42:55.283Z,204.00
2023-05-21T03:43:55.257Z,224.00
2023-05-21T03:44:55.238Z,244.00
2023-05-21T03:45:55.247Z,268.00
2023-05-21T03:46:55.238Z,292.00
2023-05-21T03:47:55.184Z,316.00
2023-05-21T03:48:55.144Z,340.00
2023-05-21T03:49:55.142Z,368.00
2023-05-21T03:50:55.107Z,396.00
2023-05-21T03:51:55.094Z,424.00
2023-05-21T03:52:55.059Z,460.00
2023-05-21T03:53:55.032Z,484.00
2023-05-21T03:54:55.013Z,520.00
2023-05-21T03:55:55.017Z,556.00
2023-05-21T03:56:55.568Z,592.00
2023-05-21T03:57:54.954Z,628.00
2023-05-21T03:58:54.931Z,660.00
2023-05-21T03:59:54.904Z,696.00
2023-05-21T04:00:54.883Z,740.00
2023-05-21T04:01:54.858Z,776.00
2023-05-21T04:02:54.911Z,816.00
2023-05-21T04:03:54.900Z,856.00
2023-05-21T04:04:54.867Z,900.00
2023-05-21T04:05:54.779Z,940.00
2023-05-21T04:06:54.750Z,984.00
2023-05-21T04:07:54.738Z,1028.00
2023-05-21T04:08:54.720Z,1076.00
2023-05-21T04:09:54.704Z,1120.00
2023-05-21T04:10:55.337Z,1172.00
2023-05-21T04:11:54.662Z,1228.00
2023-05-21T04:12:54.625Z,1284.00
2023-05-21T04:13:54.603Z,1348.00
2023-05-21T04:14:54.601Z,1400.00
2023-05-21T04:15:54.596Z,1448.00
2023-05-21T04:16:54.572Z,1492.00
2023-05-21T04:17:54.545Z,1528.00
2023-05-21T04:18:54.537Z,1560.00
2023-05-21T04:19:54.464Z,1588.00
2023-05-21T04:20:54.453Z,1612.00
2023-05-21T04:21:54.421Z,1636.00
2023-05-21T04:22:54.419Z,1660.00
2023-05-21T04:23:54.379Z,1684.00
2023-05-21T04:24:54.365Z,1700.00
2023-05-21T04:25:54.338Z,1724.00
2023-05-21T04:26:54.332Z,1752.00
2023-05-21T04:27:54.294Z,1780.00
2023-05-21T04:28:54.281Z,1812.00
2023-05-21T04:29:54.875Z,1844.00
2023-05-21T04:30:54.253Z,1872.00
2023-05-21T04:31:54.238Z,1904.00
2023-05-21T04:32:54.215Z,1932.00
2023-05-21T04:33:54.175Z,1968.00
2023-05-21T04:34:54.155Z,2000.00
2023-05-21T04:35:54.140Z,2036.00
2023-05-21T04:36:54.130Z,2072.00
2023-05-21T04:37:54.091Z,2104.00
2023-05-21T04:38:54.076Z,2144.00
2023-05-21T04:39:54.043Z,2184.00
2023-05-21T04:40:54.024Z,2224.00
2023-05-21T04:41:54.844Z,2268.00
2023-05-21T04:42:53.988Z,2312.00
2023-05-21T04:43:53.968Z,2356.00
2023-05-21T04:44:53.947Z,2396.00
2023-05-21T04:45:53.910Z,2436.00
2023-05-21T04:46:53.907Z,2472.00
2023-05-21T04:47:53.904Z,2508.00
2023-05-21T04:48:53.853Z,2556.00
2023-05-21T04:49:53.830Z,2604.00
2023-05-21T04:50:53.843Z,2656.00
2023-05-21T04:51:53.785Z,2708.00
2023-05-21T04:52:53.770Z,2764.00
2023-05-21T04:53:53.749Z,2820.00
2023-05-21T04:54:53.731Z,2872.00
2023-05-21T04:55:53.723Z,2924.00
2023-05-21T04:56:53.680Z,2976.00
2023-05-21T04:57:53.653Z,3020.00
2023-05-21T04:58:53.650Z,3064.00
2023-05-21T04:59:53.613Z,3116.00
2023-05-21T05:00:53.696Z,3168.00
2023-05-21T05:01:53.595Z,3224.00
2023-05-21T05:02:53.650Z,3272.00
2023-05-21T05:03:53.622Z,3320.00
2023-05-21T05:04:53.515Z,3372.00
2023-05-21T05:05:53.492Z,3420.00
2023-05-21T05:06:53.478Z,3468.00
2023-05-21T05:07:53.549Z,3516.00
2023-05-21T05:08:53.445Z,3568.00
2023-05-21T05:09:53.440Z,3620.00
2023-05-21T05:10:53.388Z,3668.00
2023-05-21T05:11:53.367Z,3716.00
2023-05-21T05:12:53.359Z,3760.00
2023-05-21T05:13:53.324Z,3800.00
2023-05-21T05:14:53.326Z,3840.00
2023-05-21T05:15:54.680Z,3884.00
2023-05-21T05:16:53.352Z,3928.00
2023-05-21T05:17:53.273Z,3980.00
2023-05-21T05:18:53.277Z,4032.00
2023-05-21T05:19:53.234Z,4096.00
2023-05-21T05:20:53.199Z,4164.00
2023-05-21T05:21:53.178Z,4236.00
2023-05-21T05:22:53.152Z,4308.00
2023-05-21T05:23:53.142Z,4384.00
2023-05-21T05:24:53.125Z,4460.00
2023-05-21T05:25:53.101Z,4540.00
2023-05-21T05:26:53.077Z,4620.00
2023-05-21T05:27:53.055Z,4700.00
2023-05-21T05:28:53.026Z,4792.00
2023-05-21T05:29:52.998Z,4884.00
2023-05-21T05:30:53.004Z,4972.00
2023-05-21T05:31:52.961Z,5068.00
2023-05-21T05:32:53.016Z,5152.00
2023-05-21T05:33:52.926Z,5236.00
2023-05-21T05:34:52.955Z,5336.00
2023-05-21T05:35:52.887Z,5452.00
2023-05-21T05:36:52.875Z,5572.00
2023-05-21T05:37:52.845Z,5704.00
2023-05-21T05:38:52.836Z,5840.00
2023-05-21T05:39:52.817Z,6012.00
2023-05-21T05:40:52.797Z,6212.00
2023-05-21T05:41:52.765Z,6520.00
2023-05-21T05:42:52.759Z,6904.00
2023-05-21T05:43:52.761Z,7192.00
2023-05-21T05:44:52.707Z,7568.00
2023-05-21T05:45:52.700Z,7624.00
2023-05-21T05:46:52.679Z,7444.00
2023-05-21T05:47:52.685Z,7444.00
2023-05-21T05:48:52.639Z,7600.00
2023-05-21T05:49:52.610Z,7756.00
2023-05-21T05:50:53.361Z,7932.00
2023-05-21T05:51:52.572Z,8096.00
2023-05-21T05:52:52.558Z,8244.00
2023-05-21T05:53:52.545Z,8384.00
2023-05-21T05:54:52.535Z,8520.00
2023-05-21T05:55:52.503Z,8664.00
2023-05-21T05:56:52.484Z,8796.00
2023-05-21T05:57:52.465Z,8944.00
2023-05-21T05:58:52.459Z,9108.00
2023-05-21T05:59:52.430Z,9340.00
2023-05-21T06:00:52.412Z,9532.00
2023-05-21T06:01:52.393Z,9608.00
2023-05-21T06:02:52.471Z,9596.00
2023-05-21T06:03:52.392Z,9652.00
2023-05-21T06:04:52.358Z,9752.00
2023-05-21T06:05:52.347Z,9792.00
2023-05-21T06:06:52.305Z,9908.00
2023-05-21T06:07:52.272Z,10008.00
2023-05-21T06:08:52.265Z,10060.00
2023-05-21T06:09:52.253Z,10132.00
2023-05-21T06:10:52.234Z,10148.00
2023-05-21T06:11:52.230Z,10204.00
2023-05-21T06:12:52.194Z,10204.00
2023-05-21T06:13:52.199Z,10208.00
2023-05-21T06:14:52.184Z,10220.00
2023-05-21T06:15:52.189Z,10256.00
2023-05-21T06:16:52.147Z,10228.00
2023-05-21T06:17:52.138Z,10168.00
2023-05-21T06:18:52.145Z,10128.00
2023-05-21T06:19:52.093Z,10084.00
2023-05-21T06:20:52.078Z,10100.00
2023-05-21T06:21:52.056Z,10052.00
2023-05-21T06:22:52.035Z,10008.00
2023-05-21T06:23:52.021Z,9968.00
2023-05-21T06:24:52.009Z,9912.00
2023-05-21T06:25:51.981Z,9840.00
2023-05-21T06:26:51.964Z,9780.00
2023-05-21T06:27:51.954Z,9736.00
2023-05-21T06:28:51.933Z,9676.00
2023-05-21T06:29:51.916Z,9604.00
2023-05-21T06:30:51.900Z,9524.00
2023-05-21T06:31:51.885Z,9420.00
2023-05-21T06:32:51.930Z,9320.00
2023-05-21T06:33:52.067Z,9252.00
2023-05-21T06:34:51.837Z,9200.00
2023-05-21T06:35:51.846Z,9152.00
2023-05-21T06:36:51.801Z,9128.00
2023-05-21T06:37:51.789Z,9088.00
2023-05-21T06:38:51.768Z,9004.00
2023-05-21T06:39:51.755Z,8956.00
2023-05-21T06:40:51.728Z,8980.00
2023-05-21T06:41:51.726Z,9000.00
2023-05-21T06:42:51.694Z,8940.00
2023-05-21T06:43:51.779Z,8824.00
2023-05-21T06:44:51.676Z,8680.00
2023-05-21T06:45:51.701Z,8588.00
2023-05-21T06:46:51.640Z,8568.00
2023-05-21T06:47:51.704Z,8548.00
2023-05-21T06:48:51.601Z,8612.00
2023-05-21T06:49:51.591Z,8652.00
2023-05-21T06:50:51.566Z,8532.00
2023-05-21T06:51:51.562Z,8472.00
2023-05-21T06:52:51.544Z,8436.00
2023-05-21T06:53:51.533Z,8512.00
2023-05-21T06:54:51.519Z,8520.00
2023-05-21T06:55:51.493Z,8564.00
2023-05-21T06:56:51.505Z,8604.00
2023-05-21T06:57:51.468Z,8724.00
2023-05-21T06:58:51.438Z,8752.00
2023-05-21T06:59:51.442Z,8872.00
2023-05-21T07:00:51.446Z,8964.00
2023-05-21T07:01:51.398Z,8952.00
2023-05-21T07:02:51.463Z,9004.00
2023-05-21T07:03:51.365Z,9024.00
2023-05-21T07:04:51.360Z,9040.00
2023-05-21T07:05:51.338Z,9128.00
2023-05-21T07:06:51.313Z,9236.00
2023-05-21T07:07:51.305Z,9368.00
2023-05-21T07:08:51.281Z,9532.00
2023-05-21T07:09:51.275Z,9668.00
2023-05-21T07:10:51.254Z,9836.00
2023-05-21T07:11:51.234Z,10012.00
2023-05-21T07:12:51.222Z,10272.00
2023-05-21T07:13:51.202Z,10344.00
2023-05-21T07:14:51.185Z,10552.00
2023-05-21T07:15:51.179Z,10616.00
2023-05-21T07:16:51.164Z,10668.00
2023-05-21T07:17:51.253Z,10912.00
2023-05-21T07:18:51.153Z,11048.00
2023-05-21T07:19:51.109Z,10892.00
2023-05-21T07:20:51.086Z,10840.00
2023-05-21T07:21:51.091Z,11036.00
2023-05-21T07:22:51.062Z,11336.00
2023-05-21T07:23:51.049Z,11172.00
2023-05-21T07:24:51.028Z,11340.00
2023-05-21T07:25:51.020Z,11316.00
2023-05-21T07:26:51.022Z,10968.00
2023-05-21T07:27:50.990Z,10756.00
2023-05-21T07:28:50.967Z,10532.00
2023-05-21T07:29:50.967Z,10408.00
2023-05-21T07:30:50.960Z,10540.00
2023-05-21T07:31:51.029Z,10680.00
2023-05-21T07:32:50.955Z,10388.00
2023-05-21T07:33:50.906Z,10632.00
2023-05-21T07:34:52.783Z,10588.00
2023-05-21T07:35:50.870Z,10344.00
2023-05-21T07:36:50.854Z,10192.00
2023-05-21T07:37:50.909Z,10112.00
2023-05-21T07:38:50.855Z,10104.00
2023-05-21T07:39:50.827Z,10012.00
2023-05-21T07:40:50.799Z,9968.00
2023-05-21T07:41:50.805Z,9868.00
2023-05-21T07:42:50.790Z,9984.00
2023-05-21T07:43:50.766Z,10208.00
2023-05-21T07:44:50.736Z,10376.00
2023-05-21T07:45:50.742Z,10288.00
2023-05-21T07:46:50.716Z,10296.00
2023-05-21T07:47:50.730Z,10264.00
2023-05-21T07:48:50.694Z,10252.00
2023-05-21T07:49:50.676Z,10248.00
2023-05-21T07:50:50.661Z,10284.00
2023-05-21T07:51:50.653Z,10396.00
2023-05-21T07:52:50.675Z,10412.00
2023-05-21T07:53:50.634Z,10412.00
2023-05-21T07:54:50.619Z,10388.00
2023-05-21T07:55:50.611Z,10384.00
2023-05-21T07:56:50.587Z,10368.00
2023-05-21T07:57:50.574Z,10344.00
2023-05-21T07:58:50.561Z,10320.00
2023-05-21T07:59:50.549Z,10324.00
2023-05-21T08:00:50.522Z,10344.00
2023-05-21T08:01:50.525Z,10348.00
2023-05-21T08:02:50.551Z,10352.00
2023-05-21T08:03:50.650Z,10364.00
2023-05-21T08:04:50.511Z,10396.00
2023-05-21T08:05:50.479Z,10412.00
2023-05-21T08:06:50.451Z,10408.00
2023-05-21T08:07:50.431Z,10428.00
2023-05-21T08:08:50.414Z,10488.00
2023-05-21T08:09:50.412Z,10560.00
2023-05-21T08:10:50.383Z,10628.00
2023-05-21T08:11:50.386Z,10724.00
2023-05-21T08:12:50.372Z,10824.00
2023-05-21T08:13:50.351Z,10940.00
2023-05-21T08:14:50.362Z,11020.00
2023-05-21T08:15:52.825Z,11152.00
2023-05-21T08:16:50.322Z,11216.00
2023-05-21T08:17:50.331Z,11300.00
2023-05-21T08:18:50.339Z,11360.00
2023-05-21T08:19:50.258Z,11316.00
2023-05-21T08:20:50.249Z,11316.00
2023-05-21T08:21:52.751Z,11348.00
2023-05-21T08:22:50.219Z,11412.00
2023-05-21T08:23:50.216Z,11456.00
2023-05-21T08:24:50.192Z,11508.00
2023-05-21T08:25:50.949Z,11540.00
2023-05-21T08:26:50.162Z,11636.00
2023-05-21T08:27:52.340Z,11772.00
2023-05-21T08:28:50.138Z,12036.00
2023-05-21T08:29:50.134Z,12316.00
2023-05-21T08:30:50.107Z,12884.00
2023-05-21T08:31:50.156Z,13352.00
2023-05-21T08:32:50.124Z,13584.00
2023-05-21T08:33:50.080Z,13460.00
2023-05-21T08:34:50.058Z,13364.00
2023-05-21T08:35:50.049Z,13416.00
2023-05-21T08:36:50.052Z,13480.00
2023-05-21T08:37:50.015Z,13884.00
2023-05-21T08:38:50.008Z,14296.00
2023-05-21T08:39:49.994Z,14716.00
2023-05-21T08:40:49.970Z,14824.00
2023-05-21T08:41:50.139Z,14412.00
2023-05-21T08:42:49.959Z,13936.00
2023-05-21T08:43:50.459Z,13704.00
2023-05-21T08:44:49.917Z,13484.00
2023-05-21T08:45:49.961Z,13512.00
2023-05-21T08:46:49.898Z,13780.00
2023-05-21T08:47:49.910Z,13676.00
2023-05-21T08:48:49.956Z,13764.00
2023-05-21T08:49:49.853Z,13916.00
2023-05-21T08:50:49.841Z,14152.00
2023-05-21T08:51:49.833Z,14424.00
2023-05-21T08:52:49.815Z,14828.00
2023-05-21T08:53:49.806Z,15560.00
2023-05-21T08:54:49.786Z,16892.00
2023-05-21T08:55:51.644Z,18240.00
2023-05-21T08:56:49.820Z,21344.00
2023-05-21T08:57:49.752Z,21760.00
2023-05-21T08:58:49.766Z,22336.00
2023-05-21T08:59:49.727Z,21024.00
2023-05-21T09:00:49.798Z,19776.00
2023-05-21T09:01:49.855Z,19552.00
2023-05-21T09:02:49.757Z,19328.00
2023-05-21T09:03:49.736Z,20384.00
2023-05-21T09:04:49.663Z,20768.00
2023-05-21T09:05:49.652Z,21344.00
2023-05-21T09:06:49.637Z,20192.00
2023-05-21T09:07:52.394Z,20768.00
2023-05-21T09:08:49.612Z,21184.00
2023-05-21T09:09:49.627Z,23200.00
2023-05-21T09:10:49.584Z,29056.00
2023-05-21T09:11:50.458Z,34656.00
2023-05-21T09:12:49.576Z,43648.00
2023-05-21T09:13:49.550Z,44832.00
2023-05-21T09:14:49.545Z,48384.00
2023-05-21T09:15:49.527Z,50848.00
2023-05-21T09:16:49.523Z,53632.00
2023-05-21T09:17:49.514Z,57888.00
2023-05-21T09:18:49.550Z,59776.00
2023-05-21T09:19:49.492Z,63104.00
2023-05-21T09:20:49.459Z,65984.00
2023-05-21T09:21:49.454Z,71328.00
2023-05-21T09:22:49.455Z,67968.00
2023-05-21T09:23:49.437Z,55552.00
2023-05-21T09:24:49.411Z,45024.00
2023-05-21T09:25:49.409Z,51040.00
2023-05-21T09:26:49.396Z,40992.00
2023-05-21T09:27:49.402Z,37472.00
2023-05-21T09:28:49.373Z,44480.00
2023-05-21T09:29:49.369Z,50752.00
2023-05-21T09:30:49.359Z,51104.00
2023-05-21T09:31:49.397Z,45696.00
2023-05-21T09:32:49.343Z,49376.00
2023-05-21T09:33:49.322Z,65216.00
2023-05-21T09:34:49.324Z,67392.00
2023-05-21T09:35:49.335Z,66144.00
2023-05-21T09:36:49.299Z,69280.00
2023-05-21T09:37:49.285Z,69568.00
2023-05-21T09:38:49.285Z,75840.00
2023-05-21T09:39:49.270Z,76160.00
2023-05-21T09:40:49.252Z,78560.00
2023-05-21T09:41:49.253Z,85888.00
2023-05-21T09:42:49.237Z,85216.00
2023-05-21T09:43:49.226Z,86144.00
2023-05-21T09:44:49.218Z,86624.00
2023-05-21T09:45:49.209Z,86528.00
2023-05-21T09:46:49.232Z,93792.00
2023-05-21T09:47:49.235Z,93600.00
2023-05-21T09:48:49.194Z,92192.00
2023-05-21T09:49:49.189Z,84768.00
2023-05-21T09:50:49.163Z,79328.00
2023-05-21T09:51:49.186Z,80192.00
2023-05-21T09:52:49.160Z,72864.00
2023-05-21T09:53:49.144Z,75904.00
2023-05-21T09:54:49.136Z,60608.00
2023-05-21T09:55:49.155Z,60992.00
2023-05-21T09:56:49.136Z,57888.00
2023-05-21T09:57:50.719Z,56928.00
2023-05-21T09:58:49.099Z,53856.00
2023-05-21T09:59:49.097Z,55008.00
2023-05-21T10:00:49.096Z,53216.00
2023-05-21T10:01:49.123Z,58784.00
2023-05-21T10:02:49.230Z,62208.00
2023-05-21T10:03:50.676Z,60672.00
2023-05-21T10:04:49.217Z,58112.00
2023-05-21T10:05:49.049Z,57152.00
2023-05-21T10:06:49.056Z,59584.00
2023-05-21T10:07:49.038Z,54528.00
2023-05-21T10:08:49.072Z,54496.00
2023-05-21T10:09:49.029Z,54240.00
2023-05-21T10:10:49.019Z,53376.00
2023-05-21T10:11:49.017Z,52032.00
2023-05-21T10:12:49.017Z,55520.00
2023-05-21T10:13:48.996Z,56480.00
2023-05-21T10:14:48.985Z,54624.00
2023-05-21T10:15:50.883Z,55072.00
2023-05-21T10:16:49.037Z,55328.00
2023-05-21T10:17:49.539Z,58240.00
2023-05-21T10:18:48.983Z,59424.00
2023-05-21T10:19:48.952Z,59104.00
2023-05-21T10:20:49.501Z,28192.00
2023-05-21T10:21:50.413Z,47904.00
2023-05-21T10:22:48.920Z,46784.00
2023-05-21T10:23:48.912Z,61536.00
2023-05-21T10:24:48.899Z,64224.00
2023-05-21T10:25:48.904Z,66176.00
2023-05-21T10:26:48.886Z,65024.00
2023-05-21T10:27:48.891Z,65600.00
2023-05-21T10:28:48.884Z,62688.00
2023-05-21T10:29:48.874Z,62112.00
2023-05-21T10:30:48.860Z,61376.00
2023-05-21T10:31:48.870Z,60032.00
2023-05-21T10:32:49.009Z,50528.00
2023-05-21T10:33:48.856Z,47168.00
2023-05-21T10:34:48.859Z,45856.00
2023-05-21T10:35:48.835Z,48608.00
2023-05-21T10:36:48.833Z,51008.00
2023-05-21T10:37:49.512Z,50912.00
2023-05-21T10:38:48.803Z,57408.00
2023-05-21T10:39:48.790Z,55296.00
2023-05-21T10:40:49.507Z,49024.00
2023-05-21T10:41:48.785Z,44416.00
2023-05-21T10:42:48.780Z,41760.00
2023-05-21T10:43:48.782Z,40704.00
2023-05-21T10:44:48.764Z,40384.00
2023-05-21T10:45:48.777Z,37888.00
2023-05-21T10:46:48.747Z,36064.00
2023-05-21T10:47:48.770Z,34688.00
2023-05-21T10:48:48.733Z,33472.00
2023-05-21T10:49:48.722Z,32096.00
2023-05-21T10:50:48.740Z,28320.00
2023-05-21T10:51:48.718Z,27680.00
2023-05-21T10:52:48.705Z,25216.00
2023-05-21T10:53:48.696Z,25216.00
2023-05-21T10:54:48.695Z,25664.00
2023-05-21T10:55:48.692Z,26080.00
2023-05-21T10:56:48.673Z,27296.00
2023-05-21T10:57:48.674Z,29600.00
2023-05-21T10:58:48.659Z,32544.00
2023-05-21T10:59:48.762Z,33376.00
2023-05-21T11:00:48.730Z,33216.00
2023-05-21T11:01:48.656Z,33152.00
2023-05-21T11:02:48.709Z,32864.00
2023-05-21T11:03:48.647Z,31680.00
2023-05-21T11:04:48.621Z,32384.00
2023-05-21T11:05:48.611Z,32000.00
2023-05-21T11:06:48.608Z,32640.00
2023-05-21T11:07:48.604Z,33888.00
2023-05-21T11:08:48.602Z,35264.00
2023-05-21T11:09:48.568Z,35680.00
2023-05-21T11:10:48.571Z,34976.00
2023-05-21T11:11:48.710Z,35424.00
2023-05-21T11:12:48.558Z,34592.00
2023-05-21T11:13:48.562Z,33056.00
2023-05-21T11:14:48.535Z,35168.00
2023-05-21T11:15:48.529Z,40096.00
2023-05-21T11:16:48.550Z,48608.00
2023-05-21T11:17:48.512Z,52192.00
2023-05-21T11:18:48.515Z,58240.00
2023-05-21T11:19:49.045Z,77600.00
2023-05-21T11:20:48.486Z,84672.00
2023-05-21T11:21:48.483Z,78528.00
2023-05-21T11:22:48.470Z,92192.00
2023-05-21T11:23:48.469Z,89856.00
2023-05-21T11:24:50.537Z,93056.00
2023-05-21T11:25:48.456Z,95808.00
2023-05-21T11:26:48.449Z,96896.00
2023-05-21T11:27:48.448Z,90016.00
2023-05-21T11:28:48.443Z,83744.00
2023-05-21T11:29:48.448Z,79968.00
2023-05-21T11:30:48.427Z,74016.00
2023-05-21T11:31:48.615Z,68608.00
2023-05-21T11:32:48.492Z,69984.00
2023-05-21T11:33:48.421Z,65248.00
2023-05-21T11:34:48.419Z,66016.00
2023-05-21T11:35:48.405Z,62592.00
2023-05-21T11:36:48.425Z,63008.00
2023-05-21T11:37:48.401Z,61248.00
2023-05-21T11:38:48.398Z,59136.00
2023-05-21T11:39:48.387Z,56544.00
2023-05-21T11:40:48.394Z,55200.00
2023-05-21T11:41:48.382Z,56288.00
2023-05-21T11:42:48.389Z,54208.00
2023-05-21T11:43:48.381Z,52064.00
2023-05-21T11:44:48.392Z,50432.00
2023-05-21T11:45:48.377Z,51680.00
2023-05-21T11:46:48.447Z,49888.00
2023-05-21T11:47:48.452Z,48512.00
2023-05-21T11:48:48.364Z,48928.00
2023-05-21T11:49:48.362Z,48576.00
2023-05-21T11:50:48.356Z,48928.00
2023-05-21T11:51:48.345Z,47648.00
2023-05-21T11:52:48.363Z,45312.00
2023-05-21T11:53:48.346Z,43648.00
2023-05-21T11:54:48.355Z,44704.00
2023-05-21T11:55:48.333Z,43936.00
2023-05-21T11:56:48.332Z,47072.00
2023-05-21T11:57:48.312Z,49568.00
2023-05-21T11:58:48.319Z,46176.00
2023-05-21T11:59:48.308Z,47680.00
2023-05-21T12:00:48.310Z,49056.00
2023-05-21T12:01:48.298Z,47712.00
2023-05-21T12:02:48.372Z,46624.00
2023-05-21T12:03:48.344Z,44544.00
2023-05-21T12:04:48.294Z,45184.00
2023-05-21T12:05:48.572Z,40608.00
2023-05-21T12:06:48.296Z,39232.00
2023-05-21T12:07:48.274Z,38176.00
2023-05-21T12:08:48.294Z,37184.00
2023-05-21T12:09:48.260Z,37312.00
2023-05-21T12:10:48.267Z,35200.00
2023-05-21T12:11:48.269Z,32576.00
2023-05-21T12:12:55.792Z,34368.00
2023-05-21T12:13:48.309Z,37056.00
2023-05-21T12:14:48.259Z,39168.00
2023-05-21T12:15:48.249Z,44032.00